KDEN/DEN METAR and TAF weather

Enter ICAO airport designator
Station Type Date Time Source
KDEN METAR 2022/05/26 03:53 UTC NOAA

KDEN 260353Z 15007KT 10SM CLR 12/01 A3001 RMK AO2 SLP121 T01170006


Station Type Date Time Source
KDEN Decoded METAR 2022/05/26 03:53 UTC NOAA

DENVER INTERNATIONAL AIRPORT, CO, United States (KDEN) 39-52N 104-40W 1640M
May 25, 2022 - 11:53 PM EDT / 2022.05.26 0353 UTC
Wind: from the SSE (150 degrees) at 8 MPH (7 KT):0
Visibility: 10 mile(s):0
Sky conditions: clear
Temperature: 53.1 F (11.7 C)
Dew Point: 33.1 F (0.6 C)
Relative Humidity: 46%
Pressure (altimeter): 30.01 in. Hg (1016 hPa)
ob: KDEN 260353Z 15007KT 10SM CLR 12/01 A3001 RMK AO2 SLP121 T01170006
cycle: 4

Station Type Date Time Source
KDEN TAF 2022/05/26 03:03 UTC NOAA

TAF
AMD KDEN 260300Z 2603/2706 11007KT P6SM SKC
FM260600 22010KT P6SM SKC
FM261400 27008KT P6SM SKC
FM261700 35010KT P6SM SKC
FM262100 04010KT P6SM SKC
FM270300 12010KT P6SM SKC

Example: see airport list